Time;durP1;ratioP1;P1;durP2;ratioP2;P2;SDS_P1;SDS_P2;PMS_P1;PMS_P2;Temp;Humidity;BMP_temperature;BMP_pressure;BME280_temperature;BME280_humidity;BME280_pressure;Samples;Min_cycle;Max_cycle;Signal;HPM_P1;HPM_P2
2020/12/01 00:00:17;;;;;;;0.60;0.60;;;4.50;99.90;;;5.26;100.00;-20825.44;5051712;28;20509;-67
2020/12/01 00:02:45;;;;;;;0.67;0.60;;;4.50;99.90;;;5.26;100.00;-20825.28;5052703;28;20408;-67
2020/12/01 00:05:14;;;;;;;0.60;0.60;;;4.50;99.90;;;5.29;100.00;-20826.25;5052718;28;20456;-67
2020/12/01 00:07:41;;;;;;;0.93;0.90;;;4.50;99.90;;;5.29;100.00;-20826.25;5041759;28;20444;-68
2020/12/01 00:10:12;;;;;;;0.67;0.60;;;4.50;99.90;;;5.26;100.00;-20825.28;5037780;28;20455;-67
2020/12/01 00:12:41;;;;;;;0.60;0.60;;;4.50;99.90;;;5.35;100.00;-20827.66;5052219;28;20416;-67
2020/12/01 00:15:10;;;;;;;0.60;0.60;;;4.50;99.90;;;5.32;100.00;-20827.09;5037196;28;20989;-68
2020/12/01 00:17:37;;;;;;;0.60;0.50;;;4.50;99.90;;;5.41;100.00;-20829.31;5057509;28;20515;-68
2020/12/01 00:20:06;;;;;;;0.60;0.60;;;4.60;99.90;;;5.25;100.00;-20825.16;5050596;28;20471;-67
2020/12/01 00:22:33;;;;;;;1.57;1.47;;;4.60;99.90;;;5.28;100.00;-20826.00;5041469;28;20444;-68
2020/12/01 00:25:03;;;;;;;0.60;0.50;;;4.60;99.90;;;5.29;100.00;-20826.25;5038354;28;20479;-68
2020/12/01 00:27:29;;;;;;;0.60;0.60;;;4.60;99.90;;;5.21;100.00;-20824.03;5048662;28;20478;-67
2020/12/01 00:29:57;;;;;;;0.60;0.50;;;4.50;99.90;;;5.36;100.00;-20827.94;5052841;28;20411;-67
2020/12/01 00:32:25;;;;;;;0.60;0.60;;;4.60;99.90;;;5.28;100.00;-20826.00;5053509;28;20445;-68
2020/12/01 00:34:52;;;;;;;0.70;0.70;;;4.60;99.90;;;5.22;100.00;-20824.19;5051097;28;20901;-67
2020/12/01 00:37:19;;;;;;;0.60;0.60;;;4.50;99.90;;;5.33;100.00;-20827.38;5044699;28;20476;-68
2020/12/01 00:39:46;;;;;;;0.60;0.50;;;4.50;99.90;;;5.23;100.00;-20824.59;5034331;28;20439;-67
2020/12/01 00:42:13;;;;;;;0.60;0.60;;;4.50;99.90;;;5.18;100.00;-20823.19;5044753;28;20526;-67
2020/12/01 00:44:40;;;;;;;0.70;0.60;;;4.50;99.90;;;5.22;100.00;-20824.31;5033311;28;20469;-68
2020/12/01 00:47:08;;;;;;;0.60;0.60;;;4.60;99.90;;;5.19;100.00;-20823.50;5031597;28;20432;-67
2020/12/01 00:49:35;;;;;;;0.60;0.50;;;4.50;99.90;;;5.20;100.00;-20823.75;5032387;28;20449;-68
2020/12/01 00:52:03;;;;;;;0.60;0.60;;;4.50;99.90;;;5.18;100.00;-20823.06;5020955;28;20470;-67
2020/12/01 00:54:30;;;;;;;0.60;0.60;;;4.50;99.90;;;5.12;100.00;-20821.53;5048651;28;20445;-68
2020/12/01 00:56:57;;;;;;;1.13;1.03;;;4.50;99.90;;;5.17;100.00;-20822.78;5035822;28;20427;-68
2020/12/01 00:59:25;;;;;;;0.60;0.60;;;4.50;99.90;;;5.08;100.00;-20820.41;5045316;28;20977;-68
2020/12/01 01:01:56;;;;;;;0.70;0.60;;;4.40;99.90;;;5.06;100.00;-20819.88;5067879;28;20456;-67
2020/12/01 01:04:25;;;;;;;0.60;0.53;;;4.40;99.90;;;5.01;100.00;-20818.47;5068289;28;20523;-67
2020/12/01 01:06:52;;;;;;;0.60;0.50;;;4.40;99.90;;;5.09;100.00;-20820.69;5035168;28;20460;-68
2020/12/01 01:09:19;;;;;;;0.70;0.60;;;4.40;99.90;;;5.17;100.00;-20822.94;5034837;28;20819;-68
2020/12/01 01:11:46;;;;;;;0.60;0.60;;;4.30;99.90;;;5.17;100.00;-20822.78;5038071;28;20499;-67
2020/12/01 01:14:13;;;;;;;0.60;0.60;;;4.40;99.90;;;5.17;100.00;-20822.94;5035986;28;20479;-67
2020/12/01 01:16:43;;;;;;;0.70;0.60;;;4.40;99.90;;;5.06;100.00;-20820.00;5050625;28;20943;-67
2020/12/01 01:19:14;;;;;;;0.60;0.50;;;4.40;99.90;;;4.98;100.00;-20817.63;5047277;28;20908;-67
2020/12/01 01:21:44;;;;;;;0.60;0.60;;;4.30;99.90;;;5.05;100.00;-20819.72;5053267;28;20405;-67
2020/12/01 01:24:13;;;;;;;0.60;0.60;;;4.30;99.90;;;4.97;100.00;-20817.50;5035904;28;20452;-67
2020/12/01 01:26:45;;;;;;;0.60;0.60;;;4.30;99.90;;;5.01;100.00;-20818.47;5037851;28;20457;-67
2020/12/01 01:29:12;;;;;;;0.63;0.57;;;4.30;99.90;;;4.89;100.00;-20815.13;5034599;28;20409;-67
2020/12/01 01:31:39;;;;;;;0.60;0.50;;;4.30;99.90;;;4.85;100.00;-20814.16;5035721;28;20499;-68
2020/12/01 01:34:07;;;;;;;0.60;0.60;;;4.30;99.90;;;4.94;100.00;-20816.53;5034260;28;20516;-67
2020/12/01 01:36:34;;;;;;;0.60;0.50;;;4.30;99.90;;;4.94;100.00;-20816.66;5045107;28;20444;-68
2020/12/01 01:39:06;;;;;;;0.60;0.50;;;4.30;99.90;;;5.01;100.00;-20818.63;5046911;28;20455;-67
2020/12/01 01:41:35;;;;;;;0.60;0.53;;;4.30;99.90;;;5.03;100.00;-20819.16;5020766;28;20476;-68
2020/12/01 01:44:14;;;;;;;0.60;0.60;;;4.30;99.90;;;5.02;100.00;-20818.75;5035346;28;20471;-67
2020/12/01 01:46:46;;;;;;;0.60;0.60;;;4.30;99.90;;;4.93;100.00;-20816.25;5035040;28;20447;-68
2020/12/01 01:49:19;;;;;;;0.77;0.77;;;4.30;99.90;;;4.95;100.00;-20816.81;5047063;28;20435;-67
2020/12/01 01:51:52;;;;;;;0.60;0.50;;;4.20;99.90;;;4.82;100.00;-20813.47;5049804;28;20459;-67
2020/12/01 01:54:22;;;;;;;0.63;0.60;;;4.20;99.90;;;4.97;100.00;-20817.34;5033733;28;20510;-67
2020/12/01 01:56:55;;;;;;;0.63;0.60;;;4.20;99.90;;;4.90;100.00;-20815.41;5035232;28;20465;-67
2020/12/01 01:59:24;;;;;;;0.60;0.60;;;4.20;99.90;;;4.83;100.00;-20813.75;5051500;28;20452;-67
2020/12/01 02:01:52;;;;;;;0.60;0.50;;;4.20;99.90;;;4.85;100.00;-20814.28;5041779;28;20431;-67
2020/12/01 02:04:19;;;;;;;0.67;0.60;;;4.10;99.90;;;4.81;100.00;-20813.19;5037807;28;20464;-67
2020/12/01 02:06:51;;;;;;;0.60;0.60;;;4.10;99.90;;;4.73;100.00;-20810.81;5051673;28;20444;-67
2020/12/01 02:09:23;;;;;;;0.60;0.60;;;4.10;99.90;;;4.78;100.00;-20812.22;5034647;28;20420;-67
2020/12/01 02:11:51;;;;;;;0.60;0.50;;;4.10;99.90;;;4.77;100.00;-20811.94;5033699;28;20502;-68
2020/12/01 02:14:23;;;;;;;0.60;0.60;;;4.10;99.90;;;4.88;100.00;-20814.84;5035663;28;20503;-69
2020/12/01 02:16:58;;;;;;;0.67;0.60;;;4.00;99.90;;;4.76;100.00;-20811.78;5033256;28;20445;-67
2020/12/01 02:19:28;;;;;;;0.60;0.60;;;4.10;99.90;;;4.70;100.00;-20810.13;5034761;28;20456;-67
2020/12/01 02:21:58;;;;;;;0.60;0.60;;;4.10;99.90;;;4.76;100.00;-20811.78;5037020;28;20459;-67
2020/12/01 02:24:27;;;;;;;0.60;0.60;;;4.10;99.90;;;4.76;100.00;-20811.66;5042725;28;20523;-67
2020/12/01 02:26:59;;;;;;;0.60;0.57;;;4.10;99.90;;;4.69;100.00;-20809.84;5051989;28;20440;-67
2020/12/01 02:29:30;;;;;;;3.27;3.03;;;4.10;99.90;;;4.64;100.00;-20808.31;5054176;28;20443;-67
2020/12/01 02:31:57;;;;;;;0.70;0.60;;;4.10;99.90;;;4.62;100.00;-20807.88;5054274;28;20470;-67
2020/12/01 02:34:32;;;;;;;0.60;0.50;;;4.10;99.90;;;4.74;100.00;-20811.22;5037719;28;20433;-68
2020/12/01 02:37:01;;;;;;;0.60;0.50;;;4.10;99.90;;;4.82;100.00;-20813.47;5034227;28;20445;-68
2020/12/01 02:39:29;;;;;;;0.60;0.60;;;4.10;99.90;;;4.87;100.00;-20814.56;5033762;28;20515;-67
2020/12/01 02:41:58;;;;;;;0.60;0.50;;;4.10;99.90;;;4.95;100.00;-20816.81;5034238;28;20554;-67
2020/12/01 02:44:26;;;;;;;0.60;0.60;;;4.10;99.90;;;5.09;100.00;-20820.84;5054229;28;20995;-68
2020/12/01 02:46:55;;;;;;;0.60;0.50;;;4.10;99.90;;;4.99;100.00;-20817.91;5054730;28;20425;-68
2020/12/01 02:49:22;;;;;;;0.60;0.60;;;4.20;99.90;;;5.04;100.00;-20819.31;5052720;28;20468;-67
2020/12/01 02:51:49;;;;;;;0.60;0.50;;;4.30;99.90;;;5.05;100.00;-20819.59;5053274;28;20544;-67
2020/12/01 02:54:16;;;;;;;0.60;0.50;;;4.30;99.90;;;5.07;100.00;-20820.13;5054469;28;20504;-71
2020/12/01 02:56:45;;;;;;;0.60;0.50;;;4.40;99.90;;;4.97;100.00;-20817.34;5052797;28;20455;-69
2020/12/01 02:59:13;;;;;;;0.60;0.60;;;4.30;99.90;;;5.18;100.00;-20823.19;5034627;28;20465;-68
2020/12/01 03:01:40;;;;;;;0.60;0.60;;;4.40;99.90;;;5.17;100.00;-20822.78;5048579;28;20439;-67
2020/12/01 03:04:08;;;;;;;0.60;0.60;;;4.40;99.90;;;5.08;100.00;-20820.41;5053843;28;20456;-68
2020/12/01 03:06:35;;;;;;;0.60;0.50;;;4.40;99.90;;;4.97;100.00;-20817.50;5050939;28;20448;-67
2020/12/01 03:09:05;;;;;;;0.60;0.57;;;4.30;99.90;;;4.94;100.00;-20816.53;5034398;28;20443;-68
2020/12/01 03:11:32;;;;;;;0.60;0.53;;;4.30;99.90;;;4.88;100.00;-20815.00;5033243;28;20487;-68
2020/12/01 03:13:59;;;;;;;0.60;0.60;;;4.40;99.90;;;4.92;100.00;-20815.97;5033356;28;20952;-67
2020/12/01 03:16:27;;;;;;;0.60;0.60;;;4.30;99.90;;;4.88;100.00;-20815.00;5045139;28;20513;-68
2020/12/01 03:18:54;;;;;;;0.60;0.50;;;4.30;99.90;;;4.84;100.00;-20814.00;5045829;28;20454;-68
2020/12/01 03:21:21;;;;;;;0.70;0.60;;;4.30;99.90;;;4.84;100.00;-20814.00;5049061;28;20515;-68
2020/12/01 03:23:48;;;;;;;0.60;0.60;;;4.30;99.90;;;4.83;100.00;-20813.75;5033208;28;20465;-69
2020/12/01 03:26:18;;;;;;;0.60;0.50;;;4.30;99.90;;;4.90;100.00;-20815.56;5052990;28;20443;-67
2020/12/01 03:28:46;;;;;;;0.60;0.53;;;4.40;99.90;;;4.88;100.00;-20815.00;5051965;28;20490;-67
2020/12/01 03:31:16;;;;;;;0.60;0.60;;;4.30;99.90;;;4.98;100.00;-20817.63;5033477;28;20508;-67
2020/12/01 03:33:44;;;;;;;0.60;0.50;;;4.40;99.90;;;5.00;100.00;-20818.19;5041756;28;20856;-68
2020/12/01 03:36:11;;;;;;;0.70;0.50;;;4.40;99.90;;;5.01;100.00;-20818.47;5052956;28;20467;-68
2020/12/01 03:38:38;;;;;;;0.60;0.50;;;4.40;99.90;;;5.05;100.00;-20819.59;5035128;28;20591;-68
2020/12/01 03:41:06;;;;;;;0.60;0.50;;;4.40;99.90;;;5.01;100.00;-20818.47;5032754;28;20539;-68
2020/12/01 03:43:34;;;;;;;0.60;0.60;;;4.40;99.90;;;5.00;100.00;-20818.19;5043557;28;20490;-67
2020/12/01 03:46:01;;;;;;;0.60;0.60;;;4.40;99.90;;;5.07;100.00;-20820.28;5065101;28;20429;-68
2020/12/01 03:48:29;;;;;;;0.60;0.60;;;4.40;99.90;;;5.13;100.00;-20821.81;5062660;28;20449;-67
2020/12/01 03:50:56;;;;;;;0.60;0.57;;;4.50;99.90;;;5.14;100.00;-20822.09;5033736;28;20423;-67
2020/12/01 03:53:23;;;;;;;0.60;0.50;;;4.50;99.90;;;5.19;100.00;-20823.50;5033050;28;20539;-67
2020/12/01 03:55:50;;;;;;;0.70;0.60;;;4.50;99.90;;;5.21;100.00;-20823.91;5033503;28;20567;-68
2020/12/01 03:58:18;;;;;;;0.70;0.70;;;4.60;99.90;;;5.24;100.00;-20824.75;5044845;28;20450;-68
2020/12/01 04:00:45;;;;;;;0.60;0.50;;;4.60;99.90;;;5.26;100.00;-20825.28;5053408;28;20947;-68
2020/12/01 04:03:12;;;;;;;0.60;0.60;;;4.60;99.90;;;5.29;100.00;-20826.13;5053212;28;20436;-68
2020/12/01 04:05:39;;;;;;;0.70;0.70;;;4.60;99.90;;;5.30;100.00;-20826.56;5052773;28;20471;-68
2020/12/01 04:08:09;;;;;;;0.60;0.60;;;4.60;99.90;;;5.33;100.00;-20827.38;5043756;28;20444;-68
2020/12/01 04:10:36;;;;;;;0.70;0.60;;;4.70;99.90;;;5.33;100.00;-20827.25;5042740;28;20518;-68
2020/12/01 04:13:04;;;;;;;0.60;0.60;;;4.70;99.90;;;5.23;100.00;-20824.59;5051478;28;20486;-68
2020/12/01 04:15:31;;;;;;;0.60;0.50;;;4.60;99.90;;;5.15;100.00;-20822.22;5051161;28;20460;-67
2020/12/01 04:17:58;;;;;;;0.60;0.60;;;4.60;99.90;;;5.08;100.00;-20820.41;5049398;28;20463;-67
2020/12/01 04:20:26;;;;;;;0.70;0.70;;;4.40;99.90;;;5.05;100.00;-20819.72;5033057;28;20455;-67
2020/12/01 04:22:54;;;;;;;0.60;0.57;;;4.40;99.90;;;5.08;100.00;-20820.41;5048094;28;20456;-67
2020/12/01 04:25:24;;;;;;;0.60;0.60;;;4.40;99.90;;;5.19;100.00;-20823.50;5054804;28;20475;-68
2020/12/01 04:27:53;;;;;;;0.60;0.50;;;4.40;99.90;;;5.06;100.00;-20819.88;5040713;28;20442;-68
2020/12/01 04:30:23;;;;;;;0.60;0.60;;;4.50;99.90;;;5.10;100.00;-20820.97;5056679;28;20506;-67
2020/12/01 04:32:51;;;;;;;0.60;0.57;;;4.50;99.90;;;5.10;100.00;-20820.97;5054464;28;20466;-67
2020/12/01 04:35:20;;;;;;;0.60;0.50;;;4.50;99.90;;;5.08;100.00;-20820.41;5056539;28;20530;-67
2020/12/01 04:37:47;;;;;;;0.60;0.50;;;4.50;99.90;;;5.03;100.00;-20819.03;5045212;28;20570;-67
2020/12/01 04:40:21;;;;;;;0.63;0.60;;;4.50;99.90;;;5.04;100.00;-20819.31;5039390;28;20892;-67
2020/12/01 04:42:52;;;;;;;0.60;0.50;;;4.50;99.90;;;5.06;100.00;-20819.88;5029999;28;20806;-68
2020/12/01 04:45:21;;;;;;;0.70;0.60;;;4.50;99.90;;;5.07;100.00;-20820.28;5036038;28;20555;-67
2020/12/01 04:48:00;;;;;;;0.60;0.50;;;4.50;99.90;;;5.04;100.00;-20819.44;5037920;28;20965;-68
2020/12/01 04:50:34;;;;;;;0.60;0.60;;;4.50;99.90;;;5.06;100.00;-20820.00;5036463;28;20413;-68
2020/12/01 04:53:59;;;;;;;0.60;0.50;;;4.50;99.90;;;5.04;100.00;-20819.31;5044044;28;20468;-67
2020/12/01 04:57:10;;;;;;;0.60;0.60;;;4.50;99.90;;;5.09;100.00;-20820.69;5037536;28;21060;-67
2020/12/01 05:00:05;;;;;;;0.60;0.60;;;4.50;99.90;;;5.10;100.00;-20820.97;5042083;28;20452;-67
2020/12/01 05:03:01;;;;;;;0.60;0.60;;;4.50;99.90;;;5.12;100.00;-20821.53;5036404;28;20441;-67
2020/12/01 05:06:23;;;;;;;0.60;0.60;;;4.50;99.90;;;5.20;100.00;-20823.75;5036661;28;20488;-67
2020/12/01 05:08:58;;;;;;;0.60;0.50;;;4.50;99.90;;;5.15;100.00;-20822.22;5052355;28;21009;-67
2020/12/01 05:11:55;;;;;;;0.60;0.50;;;4.50;99.90;;;5.05;100.00;-20819.72;5039957;28;20936;-67
2020/12/01 05:14:33;;;;;;;0.60;0.60;;;4.50;99.90;;;5.20;100.00;-20823.63;5008383;28;20448;-68
2020/12/01 05:17:49;;;;;;;0.60;0.50;;;4.50;99.90;;;5.15;100.00;-20822.38;5044572;28;20465;-67
2020/12/01 05:20:17;;;;;;;0.60;0.60;;;4.60;99.90;;;5.13;100.00;-20821.69;5039589;28;20473;-67
2020/12/01 05:22:49;;;;;;;0.60;0.60;;;4.60;99.90;;;5.16;100.00;-20822.50;5041141;28;20443;-67
2020/12/01 05:25:22;;;;;;;0.60;0.50;;;4.60;99.90;;;5.21;100.00;-20823.91;5049635;28;20486;-67
2020/12/01 05:27:49;;;;;;;0.60;0.50;;;4.50;99.90;;;5.22;100.00;-20824.31;5046300;28;20948;-67
2020/12/01 05:30:21;;;;;;;1.53;0.90;;;4.60;99.90;;;5.32;100.00;-20826.97;5054739;28;20439;-67
2020/12/01 05:32:57;;;;;;;0.60;0.50;;;4.60;99.90;;;5.20;100.00;-20823.75;5054212;28;20482;-67
2020/12/01 05:35:27;;;;;;;0.63;0.60;;;4.60;99.90;;;5.24;100.00;-20824.75;5055018;28;20463;-67
2020/12/01 05:38:02;;;;;;;0.60;0.50;;;4.60;99.90;;;5.23;100.00;-20824.59;5049557;28;20472;-67
2020/12/01 05:40:32;;;;;;;0.60;0.60;;;4.60;99.90;;;5.21;100.00;-20824.03;5042769;28;20948;-67
2020/12/01 05:43:00;;;;;;;0.60;0.60;;;4.60;99.90;;;5.25;100.00;-20825.16;5043953;28;20497;-67
2020/12/01 05:45:32;;;;;;;0.60;0.50;;;4.70;99.90;;;5.32;100.00;-20827.09;5041163;28;20463;-67
2020/12/01 05:48:35;;;;;;;0.60;0.50;;;4.70;99.90;;;5.26;100.00;-20825.44;5038918;28;20441;-67
2020/12/01 05:51:11;;;;;;;0.60;0.50;;;4.60;99.90;;;5.29;100.00;-20826.25;5036189;28;20457;-68
2020/12/01 05:53:39;;;;;;;0.60;0.50;;;4.70;99.90;;;5.33;100.00;-20827.38;5052097;28;20964;-68
2020/12/01 05:56:15;;;;;;;0.60;0.50;;;4.70;99.90;;;5.32;100.00;-20827.09;5049125;28;20506;-67
2020/12/01 05:58:55;;;;;;;0.60;0.50;;;4.70;99.90;;;5.39;100.00;-20828.91;5041583;28;20841;-68
2020/12/01 06:01:23;;;;;;;0.80;0.77;;;4.80;99.90;;;5.38;100.00;-20828.50;5042161;28;20461;-68
2020/12/01 06:04:05;;;;;;;0.60;0.50;;;4.70;99.90;;;5.35;100.00;-20827.66;5053153;28;20431;-67
2020/12/01 06:06:53;;;;;;;0.60;0.50;;;4.70;99.90;;;5.42;100.00;-20829.59;5055063;28;20435;-68
2020/12/01 06:09:46;;;;;;;0.70;0.60;;;4.70;99.90;;;5.35;100.00;-20827.81;5052268;28;20848;-68
2020/12/01 06:12:20;;;;;;;0.60;0.50;;;4.70;99.90;;;5.37;100.00;-20828.34;5042380;28;20487;-67
2020/12/01 06:14:57;;;;;;;0.60;0.60;;;4.80;99.90;;;5.32;100.00;-20827.09;5034813;28;20409;-67
2020/12/01 06:17:38;;;;;;;0.60;0.60;;;4.70;99.90;;;5.36;100.00;-20828.06;5034772;28;20822;-68
2020/12/01 06:20:20;;;;;;;0.60;0.50;;;4.70;99.90;;;5.38;100.00;-20828.63;5050514;28;20431;-68
2020/12/01 06:23:20;;;;;;;0.60;0.60;;;4.70;99.90;;;5.40;100.00;-20829.06;5034774;28;20453;-68
2020/12/01 06:26:18;;;;;;;0.60;0.50;;;4.70;99.90;;;5.31;100.00;-20826.81;5040018;28;20471;-68
2020/12/01 06:29:42;;;;;;;0.60;0.60;;;4.70;99.90;;;5.48;100.00;-20831.28;5050685;28;20800;-68
2020/12/01 06:32:56;;;;;;;0.60;0.50;;;4.70;99.90;;;5.35;100.00;-20827.66;5054042;28;20450;-68
2020/12/01 06:36:00;;;;;;;0.60;0.50;;;4.70;99.90;;;5.35;100.00;-20827.81;5054132;28;20944;-69
2020/12/01 06:38:51;;;;;;;0.60;0.60;;;4.70;99.90;;;5.42;100.00;-20829.59;5053917;28;20462;-68
2020/12/01 06:41:21;;;;;;;0.60;0.50;;;4.80;99.90;;;5.43;100.00;-20830.03;5034589;28;20586;-69
2020/12/01 06:43:52;;;;;;;0.97;0.90;;;4.80;99.90;;;5.47;100.00;-20831.00;5054434;28;20444;-68
2020/12/01 06:46:39;;;;;;;0.60;0.60;;;4.80;99.90;;;5.46;100.00;-20830.88;5054359;28;20467;-69
2020/12/01 06:49:11;;;;;;;0.60;0.60;;;4.80;99.90;;;5.46;100.00;-20830.88;5053833;28;20819;-68
2020/12/01 06:51:40;;;;;;;0.60;0.60;;;4.90;99.90;;;5.45;100.00;-20830.59;5054166;28;20867;-68
2020/12/01 06:54:11;;;;;;;0.60;0.50;;;4.90;99.90;;;5.47;100.00;-20831.13;5052651;28;20446;-68
2020/12/01 06:56:39;;;;;;;0.60;0.60;;;4.90;99.90;;;5.44;100.00;-20830.16;5053794;28;20440;-68
2020/12/01 06:59:10;;;;;;;0.60;0.57;;;4.80;99.90;;;5.42;100.00;-20829.59;5053929;28;20432;-68
2020/12/01 07:01:39;;;;;;;0.60;0.60;;;4.90;99.90;;;5.46;100.00;-20830.72;5053796;28;20462;-67
2020/12/01 07:04:26;;;;;;;0.60;0.50;;;4.90;99.90;;;5.39;100.00;-20828.91;5053676;28;20411;-68
2020/12/01 07:06:58;;;;;;;0.60;0.60;;;4.80;99.90;;;5.44;100.00;-20830.16;5052581;28;20836;-67
2020/12/01 07:09:29;;;;;;;0.70;0.60;;;4.80;99.90;;;5.40;100.00;-20829.06;5069350;28;20417;-68
2020/12/01 07:12:21;;;;;;;1.47;1.37;;;4.80;99.90;;;5.49;100.00;-20831.56;5068712;28;20920;-68
2020/12/01 07:14:57;;;;;;;0.60;0.60;;;4.80;99.90;;;5.46;100.00;-20830.72;5053642;28;20490;-68
2020/12/01 07:17:45;;;;;;;0.60;0.60;;;4.80;99.90;;;5.52;100.00;-20832.38;5054068;28;20855;-68
2020/12/01 07:20:36;;;;;;;0.60;0.50;;;4.80;99.90;;;5.52;100.00;-20832.53;5051310;28;20443;-68
2020/12/01 07:23:26;;;;;;;0.60;0.60;;;4.80;99.90;;;5.62;100.00;-20835.16;5054000;28;20476;-67
2020/12/01 07:26:15;;;;;;;0.60;0.50;;;4.80;99.90;;;5.50;100.00;-20831.97;5053434;28;20558;-68
2020/12/01 07:29:03;;;;;;;0.60;0.50;;;4.90;99.90;;;5.52;100.00;-20832.38;5051362;28;20539;-68
2020/12/01 07:31:33;;;;;;;0.60;0.50;;;4.90;99.90;;;5.49;100.00;-20831.56;5053937;28;20416;-68
2020/12/01 07:34:05;;;;;;;1.57;1.47;;;4.90;99.90;;;5.56;100.00;-20833.66;5052212;28;20841;-68
2020/12/01 07:36:40;;;;;;;0.60;0.60;;;4.90;99.90;;;5.52;100.00;-20832.53;5053964;28;20740;-67
2020/12/01 07:39:17;;;;;;;0.60;0.60;;;4.90;99.90;;;5.53;100.00;-20832.66;5052943;28;20892;-67
2020/12/01 07:41:49;;;;;;;0.70;0.60;;;4.90;99.90;;;5.54;100.00;-20832.94;5052922;28;20489;-68
2020/12/01 07:44:19;;;;;;;0.60;0.60;;;4.90;99.90;;;5.54;100.00;-20833.09;5034837;28;20471;-67
2020/12/01 07:46:58;;;;;;;0.60;0.57;;;4.90;99.90;;;5.57;100.00;-20833.78;5051820;28;20432;-67
2020/12/01 07:49:27;;;;;;;0.70;0.60;;;4.90;99.90;;;5.58;100.00;-20834.06;5053555;28;20446;-68
2020/12/01 07:52:15;;;;;;;0.70;0.70;;;4.90;99.90;;;5.66;100.00;-20836.28;5053097;28;20432;-67
2020/12/01 07:54:48;;;;;;;0.60;0.60;;;4.90;99.90;;;5.64;100.00;-20835.72;5051650;28;20428;-68
2020/12/01 07:57:18;;;;;;;1.17;1.13;;;5.00;99.90;;;5.77;100.00;-20839.34;5055189;28;20848;-67
2020/12/01 07:59:48;;;;;;;0.60;0.50;;;5.00;99.90;;;5.75;100.00;-20838.78;5056647;28;20435;-67
2020/12/01 08:02:18;;;;;;;0.60;0.60;;;5.00;99.90;;;5.70;100.00;-20837.41;5057423;28;20408;-67
2020/12/01 08:04:45;;;;;;;0.60;0.50;;;5.10;99.90;;;5.71;100.00;-20837.69;5057158;28;20451;-68
2020/12/01 08:07:16;;;;;;;0.63;0.60;;;5.10;99.90;;;5.71;100.00;-20837.53;5056678;28;20924;-68
2020/12/01 08:09:44;;;;;;;0.60;0.60;;;5.10;99.90;;;5.75;100.00;-20838.66;5055531;28;21154;-67
2020/12/01 08:12:15;;;;;;;0.60;0.53;;;5.10;99.90;;;5.70;100.00;-20837.41;5040631;28;20451;-69
2020/12/01 08:14:51;;;;;;;0.60;0.60;;;5.10;99.90;;;5.79;100.00;-20839.91;5057605;28;20950;-67
2020/12/01 08:17:26;;;;;;;0.60;0.50;;;5.10;99.90;;;5.74;100.00;-20838.50;5057226;28;20404;-68
2020/12/01 08:19:54;;;;;;;0.60;0.60;;;5.10;99.90;;;5.78;100.00;-20839.47;5056310;28;20478;-67
2020/12/01 08:22:38;;;;;;;0.60;0.60;;;5.10;99.90;;;5.82;100.00;-20840.75;5056907;28;20953;-68
2020/12/01 08:25:12;;;;;;;0.60;0.60;;;5.10;99.90;;;5.91;100.00;-20842.97;5056860;28;20995;-68
2020/12/01 08:27:46;;;;;;;0.60;0.50;;;5.10;99.90;;;5.82;100.00;-20840.75;5055282;28;20412;-68
2020/12/01 08:30:29;;;;;;;0.60;0.60;;;5.20;99.90;;;5.85;100.00;-20841.44;5056792;28;20440;-68
2020/12/01 08:33:11;;;;;;;0.60;0.60;;;5.20;99.90;;;5.82;100.00;-20840.59;5056616;28;20423;-68
2020/12/01 08:35:43;;;;;;;0.60;0.50;;;5.20;99.90;;;5.84;100.00;-20841.00;5056587;28;20422;-67
2020/12/01 08:38:21;;;;;;;0.60;0.60;;;5.20;99.90;;;5.88;100.00;-20842.28;5056635;28;20913;-68
2020/12/01 08:41:02;;;;;;;0.60;0.60;;;5.20;99.90;;;5.82;100.00;-20840.75;5056257;28;20931;-69
2020/12/01 08:43:37;;;;;;;0.60;0.50;;;5.30;99.90;;;5.98;100.00;-20844.91;5055060;28;20509;-67
2020/12/01 08:46:10;;;;;;;0.60;0.60;;;5.30;99.90;;;6.01;100.00;-20845.88;5056423;28;20448;-68
2020/12/01 08:48:46;;;;;;;0.60;0.50;;;5.30;99.90;;;5.98;100.00;-20844.91;5071643;28;20459;-67
2020/12/01 08:51:27;;;;;;;0.60;0.50;;;5.40;99.90;;;6.13;100.00;-20849.09;5056319;28;20973;-68
2020/12/01 08:54:10;;;;;;;0.60;0.60;;;5.40;99.90;;;6.17;100.00;-20850.19;5071328;28;20470;-67
2020/12/01 08:57:12;;;;;;;0.60;0.50;;;5.50;99.90;;;6.15;100.00;-20849.50;5056247;28;20455;-68
2020/12/01 08:59:46;;;;;;;0.60;0.53;;;5.50;99.90;;;6.21;100.00;-20851.31;5056280;28;20470;-68
2020/12/01 09:02:17;;;;;;;0.60;0.50;;;5.50;99.90;;;6.28;100.00;-20853.25;5053919;28;20466;-68
2020/12/01 09:04:46;;;;;;;0.70;0.60;;;5.60;99.90;;;6.24;100.00;-20852.16;5044958;28;20531;-68
2020/12/01 09:07:25;;;;;;;0.70;0.60;;;5.60;99.90;;;6.28;100.00;-20853.13;5051163;28;20504;-68
2020/12/01 09:10:08;;;;;;;0.60;0.60;;;5.60;99.90;;;6.21;100.00;-20851.31;5035767;28;20548;-68
2020/12/01 09:24:01;;;;;;;1.70;1.60;;;5.70;99.90;;;6.73;100.00;-20865.50;5055845;28;20512;-68
2020/12/01 09:26:30;;;;;;;0.70;0.60;;;5.80;99.90;;;6.73;100.00;-20865.34;5055460;28;20472;-67
2020/12/01 09:28:57;;;;;;;0.70;0.50;;;5.90;99.90;;;6.74;100.00;-20865.78;5055629;28;20787;-67
2020/12/01 09:31:26;;;;;;;0.60;0.60;;;6.00;99.90;;;6.84;100.00;-20868.41;5070820;28;20467;-68
2020/12/01 09:33:55;;;;;;;0.70;0.60;;;6.00;99.90;;;6.98;100.00;-20872.16;5054642;28;20424;-67
2020/12/01 09:36:27;;;;;;;0.70;0.60;;;6.20;99.90;;;7.03;100.00;-20873.53;5055316;28;20949;-68
2020/12/01 09:38:54;;;;;;;0.63;0.60;;;6.20;99.90;;;7.06;100.00;-20874.38;5049206;28;20481;-67
2020/12/01 09:41:25;;;;;;;0.60;0.50;;;6.20;99.90;;;6.98;100.00;-20872.16;5046008;28;20888;-67
2020/12/01 09:46:38;;;;;;;0.60;0.50;;;6.20;99.90;;;7.09;100.00;-20875.06;5055404;28;20467;-67
2020/12/01 09:49:06;;;;;;;0.93;0.83;;;6.20;99.90;;;7.10;100.00;-20875.50;5055384;28;20472;-68
2020/12/01 09:51:34;;;;;;;0.70;0.70;;;6.30;99.90;;;7.19;100.00;-20877.84;5055128;28;20426;-68
2020/12/01 09:54:18;;;;;;;0.70;0.50;;;6.30;99.90;;;7.38;100.00;-20883.13;5054836;28;20485;-68
2020/12/01 10:25:09;;;;;;;0.70;0.63;;;7.30;99.90;;;8.54;100.00;-20914.63;5035025;28;20901;-66
2020/12/01 10:30:01;;;;;;;0.80;0.80;;;7.50;99.90;;;8.65;100.00;-20917.69;5034606;28;20487;-69
2020/12/01 10:36:54;;;;;;;0.70;0.60;;;7.80;99.90;;;9.64;100.00;-20944.56;5035489;28;20419;-68
2020/12/01 10:39:21;;;;;;;0.70;0.70;;;7.70;99.90;;;9.51;100.00;-20940.81;5047471;28;20448;-67
2020/12/01 10:41:50;;;;;;;0.70;0.60;;;7.80;99.90;;;9.08;100.00;-20929.31;5069642;28;20460;-69
2020/12/01 10:44:18;;;;;;;0.70;0.60;;;7.90;99.90;;;9.07;100.00;-20929.06;5052966;28;20518;-68
2020/12/01 10:46:48;;;;;;;0.70;0.63;;;8.00;99.90;;;9.03;100.00;-20927.94;5054120;28;20454;-68
2020/12/01 10:49:17;;;;;;;0.70;0.60;;;8.00;99.90;;;9.03;100.00;-20927.94;5052864;28;20521;-67
2020/12/01 10:51:48;;;;;;;0.70;0.60;;;7.90;99.90;;;9.29;100.00;-20934.88;5053956;28;20756;-66
2020/12/01 10:54:15;;;;;;;0.70;0.60;;;7.90;99.90;;;8.96;100.00;-20926.00;5032807;28;20425;-66
2020/12/01 10:56:46;;;;;;;0.70;0.60;;;7.90;99.90;;;9.02;100.00;-20927.66;5034257;28;20865;-66
2020/12/01 10:59:13;;;;;;;0.70;0.60;;;7.90;99.90;;;8.78;100.00;-20921.16;5034117;28;20417;-66
2020/12/01 11:01:41;;;;;;;0.70;0.60;;;8.00;99.90;;;9.10;100.00;-20929.88;5037635;28;20845;-67
2020/12/01 11:04:09;;;;;;;0.87;0.87;;;7.90;99.90;;;8.99;100.00;-20926.84;5043066;28;20448;-66
2020/12/01 11:06:36;;;;;;;0.63;0.50;;;7.90;99.90;;;8.85;100.00;-20922.94;5033613;28;20500;-66
2020/12/01 11:09:05;;;;;;;0.70;0.70;;;7.90;99.90;;;8.86;100.00;-20923.22;5036637;28;20436;-67
2020/12/01 11:11:33;;;;;;;0.70;0.60;;;8.00;99.90;;;8.98;100.00;-20926.56;5053690;28;20442;-66
2020/12/01 11:14:01;;;;;;;0.70;0.60;;;8.00;99.90;;;8.93;100.00;-20925.31;5069462;28;20456;-66
2020/12/01 11:16:29;;;;;;;0.60;0.60;;;7.90;99.90;;;9.12;100.00;-20930.44;5054184;28;20481;-66
2020/12/01 11:18:56;;;;;;;0.70;0.60;;;8.00;99.90;;;9.59;100.00;-20943.19;5053553;28;20443;-66
2020/12/01 11:21:24;;;;;;;0.70;0.60;;;8.10;99.90;;;9.34;100.00;-20936.41;5053495;28;20420;-67
2020/12/01 11:23:51;;;;;;;0.70;0.60;;;8.30;99.90;;;9.41;100.00;-20938.19;5053572;28;20423;-67
2020/12/01 11:26:20;;;;;;;0.70;0.60;;;8.40;99.90;;;9.33;100.00;-20935.97;5053525;28;20475;-67
2020/12/01 11:28:49;;;;;;;0.70;0.60;;;8.40;99.90;;;9.35;100.00;-20936.53;5053461;28;20436;-68
2020/12/01 11:31:17;;;;;;;2.80;2.20;;;8.30;99.90;;;9.42;100.00;-20938.47;5053277;28;20470;-66
2020/12/01 11:33:56;;;;;;;0.70;0.63;;;8.30;99.90;;;9.44;100.00;-20939.03;5053201;28;20411;-67